sensor_id;sensor_type;location;lat;lon;timestamp;temperature;humidity
32753;DHT22;19121;52.428;10.816;2023-11-21T00:02:04;19.50;52.10
32753;DHT22;19121;52.428;10.816;2023-11-21T00:04:30;19.50;52.10
32753;DHT22;19121;52.428;10.816;2023-11-21T00:06:55;19.50;52.10
32753;DHT22;19121;52.428;10.816;2023-11-21T00:09:21;19.50;52.10
32753;DHT22;19121;52.428;10.816;2023-11-21T00:11:47;19.50;52.20
32753;DHT22;19121;52.428;10.816;2023-11-21T00:14:12;19.50;52.20
32753;DHT22;19121;52.428;10.816;2023-11-21T00:16:40;19.50;52.20
32753;DHT22;19121;52.428;10.816;2023-11-21T00:19:05;19.50;52.20
32753;DHT22;19121;52.428;10.816;2023-11-21T00:21:31;19.50;52.20
32753;DHT22;19121;52.428;10.816;2023-11-21T00:23:56;19.50;52.20
32753;DHT22;19121;52.428;10.816;2023-11-21T00:26:21;19.50;52.20
32753;DHT22;19121;52.428;10.816;2023-11-21T00:28:47;19.60;52.20
32753;DHT22;19121;52.428;10.816;2023-11-21T00:31:12;19.50;52.20
32753;DHT22;19121;52.428;10.816;2023-11-21T00:33:39;19.50;52.20
32753;DHT22;19121;52.428;10.816;2023-11-21T00:36:04;19.50;52.20
32753;DHT22;19121;52.428;10.816;2023-11-21T00:38:37;19.50;52.20
32753;DHT22;19121;52.428;10.816;2023-11-21T00:41:05;19.50;52.20
32753;DHT22;19121;52.428;10.816;2023-11-21T00:43:31;19.40;52.20
32753;DHT22;19121;52.428;10.816;2023-11-21T00:45:56;19.40;52.20
32753;DHT22;19121;52.428;10.816;2023-11-21T00:48:21;19.40;52.20
32753;DHT22;19121;52.428;10.816;2023-11-21T00:50:47;19.40;52.20
32753;DHT22;19121;52.428;10.816;2023-11-21T00:53:12;19.40;52.20
32753;DHT22;19121;52.428;10.816;2023-11-21T00:55:39;19.40;52.20
32753;DHT22;19121;52.428;10.816;2023-11-21T00:58:05;19.40;52.20
32753;DHT22;19121;52.428;10.816;2023-11-21T01:00:32;19.40;52.20
32753;DHT22;19121;52.428;10.816;2023-11-21T01:02:58;19.40;52.20
32753;DHT22;19121;52.428;10.816;2023-11-21T01:05:23;19.40;52.20
32753;DHT22;19121;52.428;10.816;2023-11-21T01:07:49;19.40;52.20
32753;DHT22;19121;52.428;10.816;2023-11-21T01:10:14;19.40;52.20
32753;DHT22;19121;52.428;10.816;2023-11-21T01:12:41;19.40;52.20
32753;DHT22;19121;52.428;10.816;2023-11-21T01:15:07;19.40;52.30
32753;DHT22;19121;52.428;10.816;2023-11-21T01:17:33;19.40;52.20
32753;DHT22;19121;52.428;10.816;2023-11-21T01:19:59;19.40;52.30
32753;DHT22;19121;52.428;10.816;2023-11-21T01:22:25;19.50;52.30
32753;DHT22;19121;52.428;10.816;2023-11-21T01:24:54;19.40;52.30
32753;DHT22;19121;52.428;10.816;2023-11-21T01:27:19;19.40;52.30
32753;DHT22;19121;52.428;10.816;2023-11-21T01:29:45;19.40;52.30
32753;DHT22;19121;52.428;10.816;2023-11-21T01:32:10;19.40;52.30
32753;DHT22;19121;52.428;10.816;2023-11-21T01:34:36;19.30;52.20
32753;DHT22;19121;52.428;10.816;2023-11-21T01:37:02;19.30;52.20
32753;DHT22;19121;52.428;10.816;2023-11-21T01:39:30;19.40;52.30
32753;DHT22;19121;52.428;10.816;2023-11-21T01:41:55;19.40;52.30
32753;DHT22;19121;52.428;10.816;2023-11-21T01:44:21;19.30;52.20
32753;DHT22;19121;52.428;10.816;2023-11-21T01:46:46;19.30;52.20
32753;DHT22;19121;52.428;10.816;2023-11-21T01:49:13;19.30;52.20
32753;DHT22;19121;52.428;10.816;2023-11-21T01:51:43;19.40;52.30
32753;DHT22;19121;52.428;10.816;2023-11-21T01:54:11;19.30;52.20
32753;DHT22;19121;52.428;10.816;2023-11-21T01:56:37;19.30;52.30
32753;DHT22;19121;52.428;10.816;2023-11-21T01:59:02;19.30;52.20
32753;DHT22;19121;52.428;10.816;2023-11-21T02:01:28;19.30;52.20
32753;DHT22;19121;52.428;10.816;2023-11-21T02:03:53;19.40;52.30
32753;DHT22;19121;52.428;10.816;2023-11-21T02:06:19;19.30;52.20
32753;DHT22;19121;52.428;10.816;2023-11-21T02:08:44;19.30;52.30
32753;DHT22;19121;52.428;10.816;2023-11-21T02:11:10;19.30;52.30
32753;DHT22;19121;52.428;10.816;2023-11-21T02:13:38;19.30;52.30
32753;DHT22;19121;52.428;10.816;2023-11-21T02:16:04;19.30;52.30
32753;DHT22;19121;52.428;10.816;2023-11-21T02:18:30;19.30;52.30
32753;DHT22;19121;52.428;10.816;2023-11-21T02:20:56;19.30;52.30
32753;DHT22;19121;52.428;10.816;2023-11-21T02:23:21;19.30;52.20
32753;DHT22;19121;52.428;10.816;2023-11-21T02:25:48;19.30;52.20
32753;DHT22;19121;52.428;10.816;2023-11-21T02:28:14;19.30;52.20
32753;DHT22;19121;52.428;10.816;2023-11-21T02:30:41;19.30;52.30
32753;DHT22;19121;52.428;10.816;2023-11-21T02:33:07;19.30;52.20
32753;DHT22;19121;52.428;10.816;2023-11-21T02:35:33;19.30;52.20
32753;DHT22;19121;52.428;10.816;2023-11-21T02:37:58;19.30;52.20
32753;DHT22;19121;52.428;10.816;2023-11-21T02:40:24;19.30;52.20
32753;DHT22;19121;52.428;10.816;2023-11-21T02:42:52;19.20;52.20
32753;DHT22;19121;52.428;10.816;2023-11-21T02:45:18;19.20;52.20
32753;DHT22;19121;52.428;10.816;2023-11-21T02:47:46;19.20;52.20
32753;DHT22;19121;52.428;10.816;2023-11-21T02:50:12;19.20;52.50
32753;DHT22;19121;52.428;10.816;2023-11-21T02:52:37;19.20;52.30
32753;DHT22;19121;52.428;10.816;2023-11-21T02:55:03;19.20;52.20
32753;DHT22;19121;52.428;10.816;2023-11-21T02:57:28;19.20;52.20
32753;DHT22;19121;52.428;10.816;2023-11-21T02:59:54;19.20;52.20
32753;DHT22;19121;52.428;10.816;2023-11-21T03:02:20;19.20;52.20
32753;DHT22;19121;52.428;10.816;2023-11-21T03:04:45;19.20;52.20
32753;DHT22;19121;52.428;10.816;2023-11-21T03:07:11;19.20;52.20
32753;DHT22;19121;52.428;10.816;2023-11-21T03:09:36;19.20;52.30
32753;DHT22;19121;52.428;10.816;2023-11-21T03:12:02;19.20;52.20
32753;DHT22;19121;52.428;10.816;2023-11-21T03:14:27;19.20;52.20
32753;DHT22;19121;52.428;10.816;2023-11-21T03:16:53;19.20;52.20
32753;DHT22;19121;52.428;10.816;2023-11-21T03:19:18;19.20;52.20
32753;DHT22;19121;52.428;10.816;2023-11-21T03:21:43;19.30;52.20
32753;DHT22;19121;52.428;10.816;2023-11-21T03:24:09;19.30;52.20
32753;DHT22;19121;52.428;10.816;2023-11-21T03:26:34;19.30;52.10
32753;DHT22;19121;52.428;10.816;2023-11-21T03:29:00;19.30;52.10
32753;DHT22;19121;52.428;10.816;2023-11-21T03:31:25;19.30;52.70
32753;DHT22;19121;52.428;10.816;2023-11-21T03:33:52;19.40;52.10
32753;DHT22;19121;52.428;10.816;2023-11-21T03:36:19;19.40;52.00
32753;DHT22;19121;52.428;10.816;2023-11-21T03:38:44;19.40;52.00
32753;DHT22;19121;52.428;10.816;2023-11-21T03:41:10;19.40;52.00
32753;DHT22;19121;52.428;10.816;2023-11-21T03:43:38;19.40;52.00
32753;DHT22;19121;52.428;10.816;2023-11-21T03:46:04;19.50;52.00
32753;DHT22;19121;52.428;10.816;2023-11-21T03:48:29;19.50;52.00
32753;DHT22;19121;52.428;10.816;2023-11-21T03:50:55;19.50;52.00
32753;DHT22;19121;52.428;10.816;2023-11-21T03:53:20;19.50;52.00
32753;DHT22;19121;52.428;10.816;2023-11-21T03:55:46;19.50;52.00
32753;DHT22;19121;52.428;10.816;2023-11-21T03:58:11;19.50;51.90
32753;DHT22;19121;52.428;10.816;2023-11-21T04:00:37;19.50;51.90
32753;DHT22;19121;52.428;10.816;2023-11-21T04:03:02;19.50;51.90
32753;DHT22;19121;52.428;10.816;2023-11-21T04:05:28;19.50;51.90
32753;DHT22;19121;52.428;10.816;2023-11-21T04:07:54;19.50;51.90
32753;DHT22;19121;52.428;10.816;2023-11-21T04:10:19;19.50;51.90
32753;DHT22;19121;52.428;10.816;2023-11-21T04:12:45;19.60;51.90
32753;DHT22;19121;52.428;10.816;2023-11-21T04:15:11;19.50;51.90
32753;DHT22;19121;52.428;10.816;2023-11-21T04:17:37;19.60;51.90
32753;DHT22;19121;52.428;10.816;2023-11-21T04:20:03;19.60;51.90
32753;DHT22;19121;52.428;10.816;2023-11-21T04:22:33;19.60;51.90
32753;DHT22;19121;52.428;10.816;2023-11-21T04:24:59;19.60;51.80
32753;DHT22;19121;52.428;10.816;2023-11-21T04:27:24;19.60;51.80
32753;DHT22;19121;52.428;10.816;2023-11-21T04:29:49;19.60;51.80
32753;DHT22;19121;52.428;10.816;2023-11-21T04:32:15;19.60;51.80
32753;DHT22;19121;52.428;10.816;2023-11-21T04:34:41;19.60;51.80
32753;DHT22;19121;52.428;10.816;2023-11-21T04:37:06;19.60;51.80
32753;DHT22;19121;52.428;10.816;2023-11-21T04:39:32;19.70;51.80
32753;DHT22;19121;52.428;10.816;2023-11-21T04:41:57;19.70;51.80
32753;DHT22;19121;52.428;10.816;2023-11-21T04:44:23;19.70;51.80
32753;DHT22;19121;52.428;10.816;2023-11-21T04:46:48;19.70;51.80
32753;DHT22;19121;52.428;10.816;2023-11-21T04:49:14;19.70;51.80
32753;DHT22;19121;52.428;10.816;2023-11-21T04:51:39;19.70;51.80
32753;DHT22;19121;52.428;10.816;2023-11-21T04:54:05;19.70;51.80
32753;DHT22;19121;52.428;10.816;2023-11-21T04:56:31;19.70;51.70
32753;DHT22;19121;52.428;10.816;2023-11-21T04:58:56;19.70;51.70
32753;DHT22;19121;52.428;10.816;2023-11-21T05:01:22;19.70;51.70
32753;DHT22;19121;52.428;10.816;2023-11-21T05:03:48;19.70;51.80
32753;DHT22;19121;52.428;10.816;2023-11-21T05:06:14;19.70;51.70
32753;DHT22;19121;52.428;10.816;2023-11-21T05:08:40;19.70;51.70
32753;DHT22;19121;52.428;10.816;2023-11-21T05:11:05;19.70;51.70
32753;DHT22;19121;52.428;10.816;2023-11-21T05:13:33;19.70;51.70
32753;DHT22;19121;52.428;10.816;2023-11-21T05:15:59;19.70;51.70
32753;DHT22;19121;52.428;10.816;2023-11-21T05:18:25;19.70;51.60
32753;DHT22;19121;52.428;10.816;2023-11-21T05:20:55;19.80;51.70
32753;DHT22;19121;52.428;10.816;2023-11-21T05:23:20;19.70;51.60
32753;DHT22;19121;52.428;10.816;2023-11-21T05:25:46;19.70;51.60
32753;DHT22;19121;52.428;10.816;2023-11-21T05:28:12;19.70;51.60
32753;DHT22;19121;52.428;10.816;2023-11-21T05:30:37;19.70;51.60
32753;DHT22;19121;52.428;10.816;2023-11-21T05:33:04;19.80;51.60
32753;DHT22;19121;52.428;10.816;2023-11-21T05:35:30;19.80;51.60
32753;DHT22;19121;52.428;10.816;2023-11-21T05:37:55;19.80;51.60
32753;DHT22;19121;52.428;10.816;2023-11-21T05:40:20;19.80;51.60
32753;DHT22;19121;52.428;10.816;2023-11-21T05:42:47;19.80;51.60
32753;DHT22;19121;52.428;10.816;2023-11-21T05:45:13;19.80;51.60
32753;DHT22;19121;52.428;10.816;2023-11-21T05:47:40;19.80;51.50
32753;DHT22;19121;52.428;10.816;2023-11-21T05:50:06;19.80;51.60
32753;DHT22;19121;52.428;10.816;2023-11-21T05:52:34;19.80;51.60
32753;DHT22;19121;52.428;10.816;2023-11-21T05:55:00;19.90;51.60
32753;DHT22;19121;52.428;10.816;2023-11-21T05:57:25;19.80;51.50
32753;DHT22;19121;52.428;10.816;2023-11-21T05:59:51;19.80;51.60
32753;DHT22;19121;52.428;10.816;2023-11-21T06:02:16;19.80;51.50
32753;DHT22;19121;52.428;10.816;2023-11-21T06:04:42;19.80;51.50
32753;DHT22;19121;52.428;10.816;2023-11-21T06:07:07;19.80;51.50
32753;DHT22;19121;52.428;10.816;2023-11-21T06:09:33;19.80;51.50
32753;DHT22;19121;52.428;10.816;2023-11-21T06:11:59;19.80;51.50
32753;DHT22;19121;52.428;10.816;2023-11-21T06:14:25;19.80;51.50
32753;DHT22;19121;52.428;10.816;2023-11-21T06:16:50;19.80;51.50
32753;DHT22;19121;52.428;10.816;2023-11-21T06:19:17;19.80;51.50
32753;DHT22;19121;52.428;10.816;2023-11-21T06:21:46;19.80;51.40
32753;DHT22;19121;52.428;10.816;2023-11-21T06:24:12;19.80;51.40
32753;DHT22;19121;52.428;10.816;2023-11-21T06:26:38;19.80;51.40
32753;DHT22;19121;52.428;10.816;2023-11-21T06:29:03;19.80;51.40
32753;DHT22;19121;52.428;10.816;2023-11-21T06:31:29;19.80;51.40
32753;DHT22;19121;52.428;10.816;2023-11-21T06:33:55;19.80;51.40
32753;DHT22;19121;52.428;10.816;2023-11-21T06:36:20;19.80;51.40
32753;DHT22;19121;52.428;10.816;2023-11-21T06:38:46;19.80;51.40
32753;DHT22;19121;52.428;10.816;2023-11-21T06:41:11;19.80;51.40
32753;DHT22;19121;52.428;10.816;2023-11-21T06:43:40;19.80;51.40
32753;DHT22;19121;52.428;10.816;2023-11-21T06:46:05;19.90;51.50
32753;DHT22;19121;52.428;10.816;2023-11-21T06:48:31;19.80;51.40
32753;DHT22;19121;52.428;10.816;2023-11-21T06:50:56;19.80;51.50
32753;DHT22;19121;52.428;10.816;2023-11-21T06:53:22;19.80;51.50
32753;DHT22;19121;52.428;10.816;2023-11-21T06:55:47;19.80;51.50
32753;DHT22;19121;52.428;10.816;2023-11-21T06:58:13;19.90;51.50
32753;DHT22;19121;52.428;10.816;2023-11-21T07:00:40;19.80;51.40
32753;DHT22;19121;52.428;10.816;2023-11-21T07:03:05;19.80;51.40
32753;DHT22;19121;52.428;10.816;2023-11-21T07:05:30;19.90;51.50
32753;DHT22;19121;52.428;10.816;2023-11-21T07:07:56;19.90;51.50
32753;DHT22;19121;52.428;10.816;2023-11-21T07:10:21;19.90;51.40
32753;DHT22;19121;52.428;10.816;2023-11-21T07:12:47;19.90;51.40
32753;DHT22;19121;52.428;10.816;2023-11-21T07:15:12;19.90;51.40
32753;DHT22;19121;52.428;10.816;2023-11-21T07:17:38;19.90;51.40
32753;DHT22;19121;52.428;10.816;2023-11-21T07:20:05;19.90;51.40
32753;DHT22;19121;52.428;10.816;2023-11-21T07:22:32;19.90;51.30
32753;DHT22;19121;52.428;10.816;2023-11-21T07:24:57;19.90;51.20
32753;DHT22;19121;52.428;10.816;2023-11-21T07:27:23;19.80;50.90
32753;DHT22;19121;52.428;10.816;2023-11-21T07:29:48;19.80;51.00
32753;DHT22;19121;52.428;10.816;2023-11-21T07:32:14;19.80;51.40
32753;DHT22;19121;52.428;10.816;2023-11-21T07:34:40;19.80;50.60
32753;DHT22;19121;52.428;10.816;2023-11-21T07:37:06;19.80;50.30
32753;DHT22;19121;52.428;10.816;2023-11-21T07:39:32;19.80;50.40
32753;DHT22;19121;52.428;10.816;2023-11-21T07:41:57;19.80;50.50
32753;DHT22;19121;52.428;10.816;2023-11-21T07:44:23;19.80;50.50
32753;DHT22;19121;52.428;10.816;2023-11-21T07:46:48;19.90;50.60
32753;DHT22;19121;52.428;10.816;2023-11-21T07:49:15;19.90;50.60
32753;DHT22;19121;52.428;10.816;2023-11-21T07:51:43;19.90;50.70
32753;DHT22;19121;52.428;10.816;2023-11-21T07:54:09;19.90;50.80
32753;DHT22;19121;52.428;10.816;2023-11-21T07:56:35;20.00;51.00
32753;DHT22;19121;52.428;10.816;2023-11-21T07:59:00;20.00;51.10
32753;DHT22;19121;52.428;10.816;2023-11-21T08:01:26;20.00;51.10
32753;DHT22;19121;52.428;10.816;2023-11-21T08:03:53;20.00;51.20
32753;DHT22;19121;52.428;10.816;2023-11-21T08:06:22;20.00;51.20
32753;DHT22;19121;52.428;10.816;2023-11-21T08:08:48;20.00;51.20
32753;DHT22;19121;52.428;10.816;2023-11-21T08:11:14;20.10;51.30
32753;DHT22;19121;52.428;10.816;2023-11-21T08:13:39;20.10;51.30
32753;DHT22;19121;52.428;10.816;2023-11-21T08:16:05;20.10;51.40
32753;DHT22;19121;52.428;10.816;2023-11-21T08:18:32;20.10;51.40
32753;DHT22;19121;52.428;10.816;2023-11-21T08:20:58;20.10;51.40
32753;DHT22;19121;52.428;10.816;2023-11-21T08:23:23;20.10;51.50
32753;DHT22;19121;52.428;10.816;2023-11-21T08:25:52;20.10;51.50
32753;DHT22;19121;52.428;10.816;2023-11-21T08:28:18;20.10;51.40
32753;DHT22;19121;52.428;10.816;2023-11-21T08:30:43;20.30;51.50
32753;DHT22;19121;52.428;10.816;2023-11-21T08:33:09;20.10;51.40
32753;DHT22;19121;52.428;10.816;2023-11-21T08:35:36;20.10;51.50
32753;DHT22;19121;52.428;10.816;2023-11-21T08:38:02;20.20;51.50
32753;DHT22;19121;52.428;10.816;2023-11-21T08:40:28;20.10;51.50
32753;DHT22;19121;52.428;10.816;2023-11-21T08:42:54;20.10;51.50
32753;DHT22;19121;52.428;10.816;2023-11-21T08:45:20;20.10;51.60
32753;DHT22;19121;52.428;10.816;2023-11-21T08:47:46;20.10;51.50
32753;DHT22;19121;52.428;10.816;2023-11-21T08:50:12;20.10;51.50
32753;DHT22;19121;52.428;10.816;2023-11-21T08:52:38;20.10;51.50
32753;DHT22;19121;52.428;10.816;2023-11-21T08:55:04;20.20;51.50
32753;DHT22;19121;52.428;10.816;2023-11-21T08:57:36;20.20;51.50
32753;DHT22;19121;52.428;10.816;2023-11-21T09:00:03;20.20;51.50
32753;DHT22;19121;52.428;10.816;2023-11-21T09:02:30;20.20;51.60
32753;DHT22;19121;52.428;10.816;2023-11-21T09:04:55;20.20;51.50
32753;DHT22;19121;52.428;10.816;2023-11-21T09:07:21;20.20;51.60
32753;DHT22;19121;52.428;10.816;2023-11-21T09:09:47;20.20;51.60
32753;DHT22;19121;52.428;10.816;2023-11-21T09:12:13;20.20;51.60
32753;DHT22;19121;52.428;10.816;2023-11-21T09:14:38;20.20;51.60
32753;DHT22;19121;52.428;10.816;2023-11-21T09:17:05;20.20;51.60
32753;DHT22;19121;52.428;10.816;2023-11-21T09:19:36;20.20;51.60
32753;DHT22;19121;52.428;10.816;2023-11-21T09:22:02;20.20;51.60
32753;DHT22;19121;52.428;10.816;2023-11-21T09:24:27;20.30;51.60
32753;DHT22;19121;52.428;10.816;2023-11-21T09:26:56;20.30;51.50
32753;DHT22;19121;52.428;10.816;2023-11-21T09:29:21;20.30;51.50
32753;DHT22;19121;52.428;10.816;2023-11-21T09:31:47;20.20;51.40
32753;DHT22;19121;52.428;10.816;2023-11-21T09:34:13;20.30;51.50
32753;DHT22;19121;52.428;10.816;2023-11-21T09:36:38;20.20;51.40
32753;DHT22;19121;52.428;10.816;2023-11-21T09:39:04;20.20;51.50
32753;DHT22;19121;52.428;10.816;2023-11-21T09:44:09;20.20;51.60
32753;DHT22;19121;52.428;10.816;2023-11-21T09:46:36;20.30;51.80
32753;DHT22;19121;52.428;10.816;2023-11-21T09:49:04;20.30;51.80
32753;DHT22;19121;52.428;10.816;2023-11-21T09:51:33;20.30;51.80
32753;DHT22;19121;52.428;10.816;2023-11-21T09:54:03;20.30;51.80
32753;DHT22;19121;52.428;10.816;2023-11-21T09:56:34;20.30;51.80
32753;DHT22;19121;52.428;10.816;2023-11-21T09:59:01;20.40;51.80
32753;DHT22;19121;52.428;10.816;2023-11-21T10:01:31;20.40;51.80
32753;DHT22;19121;52.428;10.816;2023-11-21T10:03:57;20.40;51.80
32753;DHT22;19121;52.428;10.816;2023-11-21T10:06:23;20.30;52.30
32753;DHT22;19121;52.428;10.816;2023-11-21T10:08:50;20.40;51.80
32753;DHT22;19121;52.428;10.816;2023-11-21T10:11:16;20.30;51.70
32753;DHT22;19121;52.428;10.816;2023-11-21T10:13:43;20.40;51.70
32753;DHT22;19121;52.428;10.816;2023-11-21T10:16:11;20.40;51.80
32753;DHT22;19121;52.428;10.816;2023-11-21T10:18:39;20.40;51.70
32753;DHT22;19121;52.428;10.816;2023-11-21T10:21:06;20.50;51.80
32753;DHT22;19121;52.428;10.816;2023-11-21T10:23:32;20.40;51.80
32753;DHT22;19121;52.428;10.816;2023-11-21T10:25:57;20.40;51.90
32753;DHT22;19121;52.428;10.816;2023-11-21T10:28:24;20.40;52.00
32753;DHT22;19121;52.428;10.816;2023-11-21T10:30:50;20.40;52.10
32753;DHT22;19121;52.428;10.816;2023-11-21T10:33:15;20.40;51.90
32753;DHT22;19121;52.428;10.816;2023-11-21T10:38:07;20.40;51.80
32753;DHT22;19121;52.428;10.816;2023-11-21T10:40:38;20.60;51.90
32753;DHT22;19121;52.428;10.816;2023-11-21T10:43:05;20.50;51.80
32753;DHT22;19121;52.428;10.816;2023-11-21T10:45:31;20.50;51.70
32753;DHT22;19121;52.428;10.816;2023-11-21T10:47:56;20.50;51.70
32753;DHT22;19121;52.428;10.816;2023-11-21T10:50:22;20.50;51.70
32753;DHT22;19121;52.428;10.816;2023-11-21T10:52:48;20.60;51.80
32753;DHT22;19121;52.428;10.816;2023-11-21T10:55:20;20.50;51.70
32753;DHT22;19121;52.428;10.816;2023-11-21T10:57:53;20.50;51.70
32753;DHT22;19121;52.428;10.816;2023-11-21T11:00:19;20.50;51.60
32753;DHT22;19121;52.428;10.816;2023-11-21T11:02:52;20.60;51.70
32753;DHT22;19121;52.428;10.816;2023-11-21T11:05:22;20.50;51.60
32753;DHT22;19121;52.428;10.816;2023-11-21T11:07:55;20.50;51.60
32753;DHT22;19121;52.428;10.816;2023-11-21T11:10:25;20.50;51.80
32753;DHT22;19121;52.428;10.816;2023-11-21T11:12:52;20.50;51.70
32753;DHT22;19121;52.428;10.816;2023-11-21T11:15:19;20.50;51.70
32753;DHT22;19121;52.428;10.816;2023-11-21T11:17:45;20.50;51.70
32753;DHT22;19121;52.428;10.816;2023-11-21T11:20:11;20.50;51.70
32753;DHT22;19121;52.428;10.816;2023-11-21T11:22:41;20.50;51.60
32753;DHT22;19121;52.428;10.816;2023-11-21T11:27:56;20.50;51.60
32753;DHT22;19121;52.428;10.816;2023-11-21T11:33:07;20.50;51.50
32753;DHT22;19121;52.428;10.816;2023-11-21T11:38:21;20.60;51.50
32753;DHT22;19121;52.428;10.816;2023-11-21T11:40:47;20.60;51.50
32753;DHT22;19121;52.428;10.816;2023-11-21T11:43:13;20.60;51.50
32753;DHT22;19121;52.428;10.816;2023-11-21T11:45:38;20.60;51.50
32753;DHT22;19121;52.428;10.816;2023-11-21T11:48:07;20.60;51.50
32753;DHT22;19121;52.428;10.816;2023-11-21T11:50:33;20.60;51.50
32753;DHT22;19121;52.428;10.816;2023-11-21T11:53:12;20.60;51.50
32753;DHT22;19121;52.428;10.816;2023-11-21T11:55:38;20.60;51.50
32753;DHT22;19121;52.428;10.816;2023-11-21T11:58:05;20.60;51.40
32753;DHT22;19121;52.428;10.816;2023-11-21T12:00:34;20.60;51.40
32753;DHT22;19121;52.428;10.816;2023-11-21T12:03:03;20.60;51.50
32753;DHT22;19121;52.428;10.816;2023-11-21T12:05:30;20.60;51.50
32753;DHT22;19121;52.428;10.816;2023-11-21T12:07:59;20.60;51.40
32753;DHT22;19121;52.428;10.816;2023-11-21T12:10:26;20.70;51.40
32753;DHT22;19121;52.428;10.816;2023-11-21T12:12:54;20.60;51.40
32753;DHT22;19121;52.428;10.816;2023-11-21T12:15:20;20.60;51.40
32753;DHT22;19121;52.428;10.816;2023-11-21T12:17:47;20.60;51.10
32753;DHT22;19121;52.428;10.816;2023-11-21T12:20:13;20.60;51.60
32753;DHT22;19121;52.428;10.816;2023-11-21T12:22:55;20.60;50.80
32753;DHT22;19121;52.428;10.816;2023-11-21T12:25:21;20.60;50.90
32753;DHT22;19121;52.428;10.816;2023-11-21T12:27:48;20.60;50.80
32753;DHT22;19121;52.428;10.816;2023-11-21T12:30:15;20.60;50.80
32753;DHT22;19121;52.428;10.816;2023-11-21T12:32:41;20.70;50.90
32753;DHT22;19121;52.428;10.816;2023-11-21T12:35:07;20.70;51.00
32753;DHT22;19121;52.428;10.816;2023-11-21T12:37:33;20.70;51.10
32753;DHT22;19121;52.428;10.816;2023-11-21T12:39:59;20.70;51.10
32753;DHT22;19121;52.428;10.816;2023-11-21T12:42:24;20.80;51.10
32753;DHT22;19121;52.428;10.816;2023-11-21T12:45:07;20.70;51.00
32753;DHT22;19121;52.428;10.816;2023-11-21T12:47:34;20.70;51.10
32753;DHT22;19121;52.428;10.816;2023-11-21T12:50:01;20.70;51.10
32753;DHT22;19121;52.428;10.816;2023-11-21T12:52:27;20.70;51.10
32753;DHT22;19121;52.428;10.816;2023-11-21T12:54:53;20.60;51.00
32753;DHT22;19121;52.428;10.816;2023-11-21T12:57:19;20.70;51.10
32753;DHT22;19121;52.428;10.816;2023-11-21T12:59:45;20.70;51.10
32753;DHT22;19121;52.428;10.816;2023-11-21T13:02:12;20.70;51.10
32753;DHT22;19121;52.428;10.816;2023-11-21T13:04:39;20.70;51.00
32753;DHT22;19121;52.428;10.816;2023-11-21T13:07:05;20.70;51.10
32753;DHT22;19121;52.428;10.816;2023-11-21T13:09:39;20.70;51.00
32753;DHT22;19121;52.428;10.816;2023-11-21T13:12:06;20.70;51.00
32753;DHT22;19121;52.428;10.816;2023-11-21T13:14:33;20.70;51.10
32753;DHT22;19121;52.428;10.816;2023-11-21T13:16:59;20.70;51.00
32753;DHT22;19121;52.428;10.816;2023-11-21T13:19:24;20.70;51.10
32753;DHT22;19121;52.428;10.816;2023-11-21T13:21:51;20.80;51.10
32753;DHT22;19121;52.428;10.816;2023-11-21T13:24:18;20.80;51.10
32753;DHT22;19121;52.428;10.816;2023-11-21T13:26:44;20.70;51.10
32753;DHT22;19121;52.428;10.816;2023-11-21T13:29:12;20.70;51.10
32753;DHT22;19121;52.428;10.816;2023-11-21T13:31:38;20.70;51.10
32753;DHT22;19121;52.428;10.816;2023-11-21T13:34:04;20.70;51.10
32753;DHT22;19121;52.428;10.816;2023-11-21T13:36:30;20.70;51.20
32753;DHT22;19121;52.428;10.816;2023-11-21T13:38:58;20.70;51.20
32753;DHT22;19121;52.428;10.816;2023-11-21T13:41:24;20.80;51.20
32753;DHT22;19121;52.428;10.816;2023-11-21T13:43:55;20.70;51.20
32753;DHT22;19121;52.428;10.816;2023-11-21T13:46:31;20.80;51.30
32753;DHT22;19121;52.428;10.816;2023-11-21T13:49:02;20.80;51.20
32753;DHT22;19121;52.428;10.816;2023-11-21T13:51:28;20.70;51.20
32753;DHT22;19121;52.428;10.816;2023-11-21T13:54:04;20.70;51.30
32753;DHT22;19121;52.428;10.816;2023-11-21T13:56:34;20.70;51.40
32753;DHT22;19121;52.428;10.816;2023-11-21T13:59:00;20.70;51.30
32753;DHT22;19121;52.428;10.816;2023-11-21T14:01:34;20.70;51.30
32753;DHT22;19121;52.428;10.816;2023-11-21T14:04:18;20.70;51.30
32753;DHT22;19121;52.428;10.816;2023-11-21T14:06:49;20.80;51.30
32753;DHT22;19121;52.428;10.816;2023-11-21T14:09:19;20.70;51.30
32753;DHT22;19121;52.428;10.816;2023-11-21T14:14:17;20.80;51.50
32753;DHT22;19121;52.428;10.816;2023-11-21T14:16:43;20.70;51.50
32753;DHT22;19121;52.428;10.816;2023-11-21T14:19:10;20.70;51.60
32753;DHT22;19121;52.428;10.816;2023-11-21T14:21:44;20.70;51.60
32753;DHT22;19121;52.428;10.816;2023-11-21T14:24:10;20.80;51.70
32753;DHT22;19121;52.428;10.816;2023-11-21T14:26:41;20.70;52.10
32753;DHT22;19121;52.428;10.816;2023-11-21T14:29:07;20.70;51.50
32753;DHT22;19121;52.428;10.816;2023-11-21T14:31:33;20.70;51.40
32753;DHT22;19121;52.428;10.816;2023-11-21T14:33:59;20.70;51.40
32753;DHT22;19121;52.428;10.816;2023-11-21T14:36:27;20.70;51.40
32753;DHT22;19121;52.428;10.816;2023-11-21T14:38:52;20.70;51.40
32753;DHT22;19121;52.428;10.816;2023-11-21T14:41:18;20.70;51.40
32753;DHT22;19121;52.428;10.816;2023-11-21T14:43:44;20.70;51.40
32753;DHT22;19121;52.428;10.816;2023-11-21T14:46:12;20.70;51.30
32753;DHT22;19121;52.428;10.816;2023-11-21T14:48:41;20.70;51.30
32753;DHT22;19121;52.428;10.816;2023-11-21T14:51:13;20.70;51.40
32753;DHT22;19121;52.428;10.816;2023-11-21T14:53:53;20.70;51.30
32753;DHT22;19121;52.428;10.816;2023-11-21T14:56:20;20.70;51.30
32753;DHT22;19121;52.428;10.816;2023-11-21T14:58:52;20.70;51.30
32753;DHT22;19121;52.428;10.816;2023-11-21T15:01:17;20.70;51.30
32753;DHT22;19121;52.428;10.816;2023-11-21T15:03:52;20.70;51.30
32753;DHT22;19121;52.428;10.816;2023-11-21T15:06:17;20.80;51.40
32753;DHT22;19121;52.428;10.816;2023-11-21T15:08:57;20.70;51.30
32753;DHT22;19121;52.428;10.816;2023-11-21T15:11:32;20.70;51.20
32753;DHT22;19121;52.428;10.816;2023-11-21T15:13:58;20.70;51.20
32753;DHT22;19121;52.428;10.816;2023-11-21T15:16:24;20.70;51.40
32753;DHT22;19121;52.428;10.816;2023-11-21T15:18:51;20.70;51.40
32753;DHT22;19121;52.428;10.816;2023-11-21T15:21:18;20.60;51.40
32753;DHT22;19121;52.428;10.816;2023-11-21T15:23:44;20.70;51.60
32753;DHT22;19121;52.428;10.816;2023-11-21T15:26:10;20.70;51.70
32753;DHT22;19121;52.428;10.816;2023-11-21T15:28:35;20.60;51.60